sensor_id;sensor_type;location;lat;lon;timestamp;P1;durP1;ratioP1;P2;durP2;ratioP2
59189;SDS011;50749;51.636;4.948;2023-06-19T00:00:31;5.35;;;4.22;;
59189;SDS011;50749;51.636;4.948;2023-06-19T00:03:17;5.50;;;4.20;;
59189;SDS011;50749;51.636;4.948;2023-06-19T00:05:42;5.13;;;3.85;;
59189;SDS011;50749;51.636;4.948;2023-06-19T00:08:08;4.95;;;4.00;;
59189;SDS011;50749;51.636;4.948;2023-06-19T00:10:34;6.55;;;3.88;;
59189;SDS011;50749;51.636;4.948;2023-06-19T00:12:59;5.63;;;4.15;;
59189;SDS011;50749;51.636;4.948;2023-06-19T00:15:25;5.03;;;3.72;;
59189;SDS011;50749;51.636;4.948;2023-06-19T00:17:52;4.55;;;3.65;;
59189;SDS011;50749;51.636;4.948;2023-06-19T00:20:18;5.63;;;4.10;;
59189;SDS011;50749;51.636;4.948;2023-06-19T00:22:44;5.32;;;3.30;;
59189;SDS011;50749;51.636;4.948;2023-06-19T00:25:09;8.07;;;3.78;;
59189;SDS011;50749;51.636;4.948;2023-06-19T00:27:36;4.18;;;3.35;;
59189;SDS011;50749;51.636;4.948;2023-06-19T00:30:01;4.18;;;3.08;;
59189;SDS011;50749;51.636;4.948;2023-06-19T00:32:28;4.45;;;3.35;;
59189;SDS011;50749;51.636;4.948;2023-06-19T00:34:54;5.07;;;3.50;;
59189;SDS011;50749;51.636;4.948;2023-06-19T00:37:20;7.43;;;3.13;;
59189;SDS011;50749;51.636;4.948;2023-06-19T00:39:45;4.57;;;3.20;;
59189;SDS011;50749;51.636;4.948;2023-06-19T00:42:11;4.18;;;3.00;;
59189;SDS011;50749;51.636;4.948;2023-06-19T00:44:37;3.70;;;2.83;;
59189;SDS011;50749;51.636;4.948;2023-06-19T00:47:03;5.05;;;3.08;;
59189;SDS011;50749;51.636;4.948;2023-06-19T00:49:29;3.95;;;2.80;;
59189;SDS011;50749;51.636;4.948;2023-06-19T00:51:56;3.60;;;2.67;;
59189;SDS011;50749;51.636;4.948;2023-06-19T00:54:22;3.70;;;2.45;;
59189;SDS011;50749;51.636;4.948;2023-06-19T00:56:48;3.42;;;2.50;;
59189;SDS011;50749;51.636;4.948;2023-06-19T00:59:18;3.22;;;2.53;;
59189;SDS011;50749;51.636;4.948;2023-06-19T01:01:45;5.40;;;3.00;;
59189;SDS011;50749;51.636;4.948;2023-06-19T01:04:11;3.58;;;2.45;;
59189;SDS011;50749;51.636;4.948;2023-06-19T01:06:54;4.88;;;2.50;;
59189;SDS011;50749;51.636;4.948;2023-06-19T01:09:46;3.53;;;2.38;;
59189;SDS011;50749;51.636;4.948;2023-06-19T01:12:19;4.65;;;2.50;;
59189;SDS011;50749;51.636;4.948;2023-06-19T01:14:57;4.70;;;2.47;;
59189;SDS011;50749;51.636;4.948;2023-06-19T01:17:28;3.47;;;2.25;;
59189;SDS011;50749;51.636;4.948;2023-06-19T01:19:54;3.65;;;2.65;;
59189;SDS011;50749;51.636;4.948;2023-06-19T01:22:28;4.22;;;2.13;;
59189;SDS011;50749;51.636;4.948;2023-06-19T01:24:54;4.07;;;2.13;;
59189;SDS011;50749;51.636;4.948;2023-06-19T01:27:20;3.05;;;2.10;;
59189;SDS011;50749;51.636;4.948;2023-06-19T01:29:47;4.57;;;2.72;;
59189;SDS011;50749;51.636;4.948;2023-06-19T01:32:13;2.63;;;1.90;;
59189;SDS011;50749;51.636;4.948;2023-06-19T01:34:44;3.33;;;2.00;;
59189;SDS011;50749;51.636;4.948;2023-06-19T01:37:11;3.70;;;1.95;;
59189;SDS011;50749;51.636;4.948;2023-06-19T01:39:37;2.78;;;1.95;;
59189;SDS011;50749;51.636;4.948;2023-06-19T01:42:03;3.03;;;1.65;;
59189;SDS011;50749;51.636;4.948;2023-06-19T01:44:30;3.25;;;1.92;;
59189;SDS011;50749;51.636;4.948;2023-06-19T01:46:56;2.75;;;1.73;;
59189;SDS011;50749;51.636;4.948;2023-06-19T01:49:21;2.67;;;1.88;;
59189;SDS011;50749;51.636;4.948;2023-06-19T01:51:47;2.20;;;1.70;;
59189;SDS011;50749;51.636;4.948;2023-06-19T01:54:13;5.13;;;2.22;;
59189;SDS011;50749;51.636;4.948;2023-06-19T01:56:39;3.58;;;1.92;;
59189;SDS011;50749;51.636;4.948;2023-06-19T01:59:05;4.30;;;1.75;;
59189;SDS011;50749;51.636;4.948;2023-06-19T02:01:30;3.08;;;1.63;;
59189;SDS011;50749;51.636;4.948;2023-06-19T02:03:56;3.42;;;2.00;;
59189;SDS011;50749;51.636;4.948;2023-06-19T02:06:22;2.83;;;1.77;;
59189;SDS011;50749;51.636;4.948;2023-06-19T02:08:48;2.55;;;1.55;;
59189;SDS011;50749;51.636;4.948;2023-06-19T02:11:14;2.25;;;1.35;;
59189;SDS011;50749;51.636;4.948;2023-06-19T02:13:40;3.17;;;1.63;;
59189;SDS011;50749;51.636;4.948;2023-06-19T02:16:06;4.95;;;1.67;;
59189;SDS011;50749;51.636;4.948;2023-06-19T02:18:31;2.20;;;1.42;;
59189;SDS011;50749;51.636;4.948;2023-06-19T02:20:58;3.10;;;1.55;;
59189;SDS011;50749;51.636;4.948;2023-06-19T02:23:23;4.40;;;1.73;;
59189;SDS011;50749;51.636;4.948;2023-06-19T02:25:49;2.40;;;1.50;;
59189;SDS011;50749;51.636;4.948;2023-06-19T02:28:15;2.72;;;1.50;;
59189;SDS011;50749;51.636;4.948;2023-06-19T02:30:41;2.55;;;1.60;;
59189;SDS011;50749;51.636;4.948;2023-06-19T02:33:07;2.25;;;1.52;;
59189;SDS011;50749;51.636;4.948;2023-06-19T02:35:33;2.10;;;1.60;;
59189;SDS011;50749;51.636;4.948;2023-06-19T02:37:58;3.38;;;1.42;;
59189;SDS011;50749;51.636;4.948;2023-06-19T02:40:24;3.30;;;1.52;;
59189;SDS011;50749;51.636;4.948;2023-06-19T02:42:50;3.88;;;1.80;;
59189;SDS011;50749;51.636;4.948;2023-06-19T02:45:16;4.78;;;1.80;;
59189;SDS011;50749;51.636;4.948;2023-06-19T02:47:41;3.65;;;1.67;;
59189;SDS011;50749;51.636;4.948;2023-06-19T02:50:07;2.95;;;1.45;;
59189;SDS011;50749;51.636;4.948;2023-06-19T02:52:33;2.42;;;1.30;;
59189;SDS011;50749;51.636;4.948;2023-06-19T02:54:59;2.13;;;1.40;;
59189;SDS011;50749;51.636;4.948;2023-06-19T02:57:25;2.20;;;1.40;;
59189;SDS011;50749;51.636;4.948;2023-06-19T02:59:51;2.17;;;1.33;;
59189;SDS011;50749;51.636;4.948;2023-06-19T03:02:16;3.03;;;1.48;;
59189;SDS011;50749;51.636;4.948;2023-06-19T03:04:42;2.53;;;1.60;;
59189;SDS011;50749;51.636;4.948;2023-06-19T03:07:09;3.03;;;1.42;;
59189;SDS011;50749;51.636;4.948;2023-06-19T03:09:35;2.67;;;1.40;;
59189;SDS011;50749;51.636;4.948;2023-06-19T03:12:01;3.05;;;1.60;;
59189;SDS011;50749;51.636;4.948;2023-06-19T03:14:27;2.70;;;1.60;;
59189;SDS011;50749;51.636;4.948;2023-06-19T03:16:53;2.88;;;1.60;;
59189;SDS011;50749;51.636;4.948;2023-06-19T03:19:19;3.47;;;1.63;;
59189;SDS011;50749;51.636;4.948;2023-06-19T03:21:44;2.95;;;2.05;;
59189;SDS011;50749;51.636;4.948;2023-06-19T03:24:10;2.20;;;1.50;;
59189;SDS011;50749;51.636;4.948;2023-06-19T03:26:36;2.90;;;1.90;;
59189;SDS011;50749;51.636;4.948;2023-06-19T03:29:01;2.60;;;1.60;;
59189;SDS011;50749;51.636;4.948;2023-06-19T03:31:27;4.13;;;1.67;;
59189;SDS011;50749;51.636;4.948;2023-06-19T03:33:53;2.55;;;1.48;;
59189;SDS011;50749;51.636;4.948;2023-06-19T03:36:19;3.08;;;1.65;;
59189;SDS011;50749;51.636;4.948;2023-06-19T03:38:45;1.98;;;1.30;;
59189;SDS011;50749;51.636;4.948;2023-06-19T03:41:10;2.28;;;1.65;;
59189;SDS011;50749;51.636;4.948;2023-06-19T03:43:36;2.35;;;1.75;;
59189;SDS011;50749;51.636;4.948;2023-06-19T03:46:02;2.65;;;1.60;;
59189;SDS011;50749;51.636;4.948;2023-06-19T03:48:28;3.70;;;1.70;;
59189;SDS011;50749;51.636;4.948;2023-06-19T03:50:54;2.60;;;1.70;;
59189;SDS011;50749;51.636;4.948;2023-06-19T03:53:20;3.13;;;1.58;;
59189;SDS011;50749;51.636;4.948;2023-06-19T03:55:46;2.88;;;1.50;;
59189;SDS011;50749;51.636;4.948;2023-06-19T03:58:12;3.10;;;1.90;;
59189;SDS011;50749;51.636;4.948;2023-06-19T04:00:38;3.78;;;2.38;;
59189;SDS011;50749;51.636;4.948;2023-06-19T04:03:04;3.45;;;1.90;;
59189;SDS011;50749;51.636;4.948;2023-06-19T04:05:29;3.28;;;1.85;;
59189;SDS011;50749;51.636;4.948;2023-06-19T04:07:55;3.40;;;1.75;;
59189;SDS011;50749;51.636;4.948;2023-06-19T04:10:20;3.38;;;2.10;;
59189;SDS011;50749;51.636;4.948;2023-06-19T04:12:46;5.03;;;2.03;;
59189;SDS011;50749;51.636;4.948;2023-06-19T04:15:13;3.17;;;2.00;;
59189;SDS011;50749;51.636;4.948;2023-06-19T04:17:39;3.80;;;1.95;;
59189;SDS011;50749;51.636;4.948;2023-06-19T04:20:04;2.67;;;2.00;;
59189;SDS011;50749;51.636;4.948;2023-06-19T04:22:37;2.95;;;2.05;;
59189;SDS011;50749;51.636;4.948;2023-06-19T04:25:04;2.60;;;2.08;;
59189;SDS011;50749;51.636;4.948;2023-06-19T04:27:34;4.65;;;2.40;;
59189;SDS011;50749;51.636;4.948;2023-06-19T04:30:00;3.38;;;2.33;;
59189;SDS011;50749;51.636;4.948;2023-06-19T04:32:28;2.95;;;1.92;;
59189;SDS011;50749;51.636;4.948;2023-06-19T04:34:54;2.53;;;1.90;;
59189;SDS011;50749;51.636;4.948;2023-06-19T04:37:19;4.55;;;2.20;;
59189;SDS011;50749;51.636;4.948;2023-06-19T04:39:45;3.88;;;2.10;;
59189;SDS011;50749;51.636;4.948;2023-06-19T04:42:16;3.03;;;2.03;;
59189;SDS011;50749;51.636;4.948;2023-06-19T04:44:48;3.80;;;2.30;;
59189;SDS011;50749;51.636;4.948;2023-06-19T04:47:16;3.20;;;2.50;;
59189;SDS011;50749;51.636;4.948;2023-06-19T04:49:42;7.13;;;2.40;;
59189;SDS011;50749;51.636;4.948;2023-06-19T04:52:08;3.55;;;2.20;;
59189;SDS011;50749;51.636;4.948;2023-06-19T04:54:34;4.65;;;2.50;;
59189;SDS011;50749;51.636;4.948;2023-06-19T04:57:00;5.72;;;2.42;;
59189;SDS011;50749;51.636;4.948;2023-06-19T04:59:26;4.07;;;2.17;;
59189;SDS011;50749;51.636;4.948;2023-06-19T05:01:52;5.18;;;1.77;;
59189;SDS011;50749;51.636;4.948;2023-06-19T05:04:21;3.45;;;2.15;;
59189;SDS011;50749;51.636;4.948;2023-06-19T05:06:48;3.97;;;2.22;;
59189;SDS011;50749;51.636;4.948;2023-06-19T05:09:14;5.30;;;2.30;;
59189;SDS011;50749;51.636;4.948;2023-06-19T05:11:40;3.75;;;2.15;;
59189;SDS011;50749;51.636;4.948;2023-06-19T05:14:05;4.60;;;2.60;;
59189;SDS011;50749;51.636;4.948;2023-06-19T05:16:32;3.85;;;1.90;;
59189;SDS011;50749;51.636;4.948;2023-06-19T05:18:58;3.13;;;1.98;;
59189;SDS011;50749;51.636;4.948;2023-06-19T05:21:24;3.25;;;2.17;;
59189;SDS011;50749;51.636;4.948;2023-06-19T05:23:50;4.40;;;2.22;;
59189;SDS011;50749;51.636;4.948;2023-06-19T05:26:18;4.18;;;2.55;;
59189;SDS011;50749;51.636;4.948;2023-06-19T05:28:45;4.68;;;2.58;;
59189;SDS011;50749;51.636;4.948;2023-06-19T05:31:11;4.30;;;2.50;;
59189;SDS011;50749;51.636;4.948;2023-06-19T05:33:37;4.05;;;2.20;;
59189;SDS011;50749;51.636;4.948;2023-06-19T05:36:03;3.03;;;2.47;;
59189;SDS011;50749;51.636;4.948;2023-06-19T05:38:28;2.85;;;2.30;;
59189;SDS011;50749;51.636;4.948;2023-06-19T05:40:59;3.50;;;2.53;;
59189;SDS011;50749;51.636;4.948;2023-06-19T05:43:25;3.55;;;2.40;;
59189;SDS011;50749;51.636;4.948;2023-06-19T05:45:52;4.55;;;2.63;;
59189;SDS011;50749;51.636;4.948;2023-06-19T05:48:19;4.18;;;2.38;;
59189;SDS011;50749;51.636;4.948;2023-06-19T05:50:45;4.25;;;2.40;;
59189;SDS011;50749;51.636;4.948;2023-06-19T05:53:10;3.20;;;2.28;;
59189;SDS011;50749;51.636;4.948;2023-06-19T05:55:36;3.50;;;2.60;;
59189;SDS011;50749;51.636;4.948;2023-06-19T05:58:02;3.60;;;2.30;;
59189;SDS011;50749;51.636;4.948;2023-06-19T06:00:29;4.18;;;2.55;;
59189;SDS011;50749;51.636;4.948;2023-06-19T06:02:57;4.07;;;2.60;;
59189;SDS011;50749;51.636;4.948;2023-06-19T06:05:26;3.60;;;2.63;;
59189;SDS011;50749;51.636;4.948;2023-06-19T06:07:53;3.20;;;2.40;;
59189;SDS011;50749;51.636;4.948;2023-06-19T06:10:20;4.05;;;2.67;;
59189;SDS011;50749;51.636;4.948;2023-06-19T06:12:47;4.30;;;2.30;;
59189;SDS011;50749;51.636;4.948;2023-06-19T06:15:13;3.45;;;2.83;;
59189;SDS011;50749;51.636;4.948;2023-06-19T06:17:39;3.70;;;2.25;;
59189;SDS011;50749;51.636;4.948;2023-06-19T06:20:05;3.30;;;2.65;;
59189;SDS011;50749;51.636;4.948;2023-06-19T06:22:36;3.65;;;2.70;;
59189;SDS011;50749;51.636;4.948;2023-06-19T06:25:02;3.60;;;2.90;;
59189;SDS011;50749;51.636;4.948;2023-06-19T06:27:28;5.68;;;3.30;;
59189;SDS011;50749;51.636;4.948;2023-06-19T06:29:54;3.55;;;2.53;;
59189;SDS011;50749;51.636;4.948;2023-06-19T06:32:19;5.63;;;2.90;;
59189;SDS011;50749;51.636;4.948;2023-06-19T06:34:45;4.32;;;3.20;;
59189;SDS011;50749;51.636;4.948;2023-06-19T06:37:11;5.18;;;3.40;;
59189;SDS011;50749;51.636;4.948;2023-06-19T06:39:36;4.13;;;3.30;;
59189;SDS011;50749;51.636;4.948;2023-06-19T06:42:03;3.67;;;3.00;;
59189;SDS011;50749;51.636;4.948;2023-06-19T06:44:30;4.35;;;3.20;;
59189;SDS011;50749;51.636;4.948;2023-06-19T06:46:55;3.67;;;3.03;;
59189;SDS011;50749;51.636;4.948;2023-06-19T06:49:24;5.55;;;3.20;;
59189;SDS011;50749;51.636;4.948;2023-06-19T06:51:49;4.40;;;3.03;;
59189;SDS011;50749;51.636;4.948;2023-06-19T06:54:15;4.53;;;3.15;;
59189;SDS011;50749;51.636;4.948;2023-06-19T06:56:41;4.10;;;3.05;;
59189;SDS011;50749;51.636;4.948;2023-06-19T06:59:07;4.28;;;3.47;;
59189;SDS011;50749;51.636;4.948;2023-06-19T07:01:33;4.53;;;3.88;;
59189;SDS011;50749;51.636;4.948;2023-06-19T07:03:58;5.18;;;3.85;;
59189;SDS011;50749;51.636;4.948;2023-06-19T07:06:24;7.05;;;3.50;;
59189;SDS011;50749;51.636;4.948;2023-06-19T07:08:50;4.97;;;3.45;;
59189;SDS011;50749;51.636;4.948;2023-06-19T07:11:16;6.10;;;4.13;;
59189;SDS011;50749;51.636;4.948;2023-06-19T07:13:41;5.35;;;3.33;;
59189;SDS011;50749;51.636;4.948;2023-06-19T07:16:07;6.55;;;3.33;;
59189;SDS011;50749;51.636;4.948;2023-06-19T07:18:33;5.22;;;3.88;;
59189;SDS011;50749;51.636;4.948;2023-06-19T07:21:00;4.88;;;3.28;;
59189;SDS011;50749;51.636;4.948;2023-06-19T07:23:28;5.03;;;3.45;;
59189;SDS011;50749;51.636;4.948;2023-06-19T07:25:53;6.15;;;3.72;;
59189;SDS011;50749;51.636;4.948;2023-06-19T07:28:19;7.78;;;4.57;;
59189;SDS011;50749;51.636;4.948;2023-06-19T07:30:44;5.95;;;4.07;;
59189;SDS011;50749;51.636;4.948;2023-06-19T07:33:13;5.90;;;4.10;;
59189;SDS011;50749;51.636;4.948;2023-06-19T07:35:38;6.22;;;3.90;;
59189;SDS011;50749;51.636;4.948;2023-06-19T07:38:04;4.22;;;3.67;;
59189;SDS011;50749;51.636;4.948;2023-06-19T07:40:30;5.32;;;3.83;;
59189;SDS011;50749;51.636;4.948;2023-06-19T07:42:56;5.10;;;4.10;;
59189;SDS011;50749;51.636;4.948;2023-06-19T07:45:21;5.15;;;3.95;;
59189;SDS011;50749;51.636;4.948;2023-06-19T07:47:55;7.10;;;4.00;;
59189;SDS011;50749;51.636;4.948;2023-06-19T07:50:21;4.40;;;3.88;;
59189;SDS011;50749;51.636;4.948;2023-06-19T07:52:47;6.85;;;4.63;;
59189;SDS011;50749;51.636;4.948;2023-06-19T07:55:13;8.25;;;4.35;;
59189;SDS011;50749;51.636;4.948;2023-06-19T07:57:39;4.47;;;4.07;;
59189;SDS011;50749;51.636;4.948;2023-06-19T08:00:05;7.00;;;4.97;;
59189;SDS011;50749;51.636;4.948;2023-06-19T08:02:37;6.55;;;5.13;;
59189;SDS011;50749;51.636;4.948;2023-06-19T08:05:02;6.57;;;5.35;;
59189;SDS011;50749;51.636;4.948;2023-06-19T08:07:28;5.97;;;4.85;;
59189;SDS011;50749;51.636;4.948;2023-06-19T08:09:54;7.35;;;5.00;;
59189;SDS011;50749;51.636;4.948;2023-06-19T08:12:20;6.28;;;4.82;;
59189;SDS011;50749;51.636;4.948;2023-06-19T08:14:45;7.57;;;4.72;;
59189;SDS011;50749;51.636;4.948;2023-06-19T08:17:11;5.90;;;4.75;;
59189;SDS011;50749;51.636;4.948;2023-06-19T08:19:37;5.40;;;4.15;;
59189;SDS011;50749;51.636;4.948;2023-06-19T08:22:05;6.75;;;4.70;;
59189;SDS011;50749;51.636;4.948;2023-06-19T08:24:31;5.82;;;4.63;;
59189;SDS011;50749;51.636;4.948;2023-06-19T08:26:57;6.07;;;4.63;;
59189;SDS011;50749;51.636;4.948;2023-06-19T08:29:22;6.78;;;4.90;;
59189;SDS011;50749;51.636;4.948;2023-06-19T08:31:48;8.05;;;5.47;;
59189;SDS011;50749;51.636;4.948;2023-06-19T08:34:14;5.93;;;5.00;;
59189;SDS011;50749;51.636;4.948;2023-06-19T08:36:40;7.15;;;5.38;;
59189;SDS011;50749;51.636;4.948;2023-06-19T08:39:05;6.63;;;5.80;;
59189;SDS011;50749;51.636;4.948;2023-06-19T08:41:34;7.05;;;5.32;;
59189;SDS011;50749;51.636;4.948;2023-06-19T08:44:01;7.32;;;4.80;;
59189;SDS011;50749;51.636;4.948;2023-06-19T08:46:28;6.18;;;5.47;;
59189;SDS011;50749;51.636;4.948;2023-06-19T08:48:54;7.53;;;6.10;;
59189;SDS011;50749;51.636;4.948;2023-06-19T08:51:21;6.53;;;5.50;;
59189;SDS011;50749;51.636;4.948;2023-06-19T08:53:54;7.80;;;5.20;;
59189;SDS011;50749;51.636;4.948;2023-06-19T08:56:21;7.43;;;5.43;;
59189;SDS011;50749;51.636;4.948;2023-06-19T08:58:47;6.32;;;4.95;;
59189;SDS011;50749;51.636;4.948;2023-06-19T09:01:16;6.70;;;5.45;;
59189;SDS011;50749;51.636;4.948;2023-06-19T09:03:43;6.57;;;5.20;;
59189;SDS011;50749;51.636;4.948;2023-06-19T09:06:14;8.10;;;5.50;;
59189;SDS011;50749;51.636;4.948;2023-06-19T09:08:44;7.55;;;5.88;;
59189;SDS011;50749;51.636;4.948;2023-06-19T09:11:10;8.38;;;5.60;;
59189;SDS011;50749;51.636;4.948;2023-06-19T09:13:36;5.40;;;4.72;;
59189;SDS011;50749;51.636;4.948;2023-06-19T09:16:03;6.63;;;4.93;;
59189;SDS011;50749;51.636;4.948;2023-06-19T09:18:30;6.75;;;4.90;;
59189;SDS011;50749;51.636;4.948;2023-06-19T09:20:57;8.43;;;5.78;;
59189;SDS011;50749;51.636;4.948;2023-06-19T09:23:23;8.23;;;5.43;;
59189;SDS011;50749;51.636;4.948;2023-06-19T09:25:50;8.82;;;5.97;;
59189;SDS011;50749;51.636;4.948;2023-06-19T09:28:18;6.28;;;4.90;;
59189;SDS011;50749;51.636;4.948;2023-06-19T09:30:57;8.73;;;6.20;;
59189;SDS011;50749;51.636;4.948;2023-06-19T09:33:25;8.05;;;5.90;;
59189;SDS011;50749;51.636;4.948;2023-06-19T09:36:02;7.78;;;5.28;;
59189;SDS011;50749;51.636;4.948;2023-06-19T09:38:30;7.65;;;5.55;;
59189;SDS011;50749;51.636;4.948;2023-06-19T09:40:58;9.02;;;5.93;;
59189;SDS011;50749;51.636;4.948;2023-06-19T09:43:36;9.57;;;5.95;;
59189;SDS011;50749;51.636;4.948;2023-06-19T09:46:07;8.43;;;5.43;;
59189;SDS011;50749;51.636;4.948;2023-06-19T09:48:34;9.60;;;5.28;;
59189;SDS011;50749;51.636;4.948;2023-06-19T09:53:44;6.82;;;5.35;;
59189;SDS011;50749;51.636;4.948;2023-06-19T09:56:12;7.80;;;5.13;;
59189;SDS011;50749;51.636;4.948;2023-06-19T09:58:39;7.40;;;5.22;;
59189;SDS011;50749;51.636;4.948;2023-06-19T10:01:07;7.20;;;4.70;;
59189;SDS011;50749;51.636;4.948;2023-06-19T10:03:33;6.45;;;5.10;;
59189;SDS011;50749;51.636;4.948;2023-06-19T10:06:01;6.90;;;4.63;;
59189;SDS011;50749;51.636;4.948;2023-06-19T10:08:31;7.38;;;5.80;;
59189;SDS011;50749;51.636;4.948;2023-06-19T10:11:06;6.00;;;5.40;;
59189;SDS011;50749;51.636;4.948;2023-06-19T10:13:33;9.32;;;5.38;;
59189;SDS011;50749;51.636;4.948;2023-06-19T10:16:00;8.25;;;4.97;;
59189;SDS011;50749;51.636;4.948;2023-06-19T10:18:26;6.85;;;5.22;;
59189;SDS011;50749;51.636;4.948;2023-06-19T10:20:53;7.57;;;5.22;;
59189;SDS011;50749;51.636;4.948;2023-06-19T10:23:24;6.53;;;5.10;;
59189;SDS011;50749;51.636;4.948;2023-06-19T10:28:19;7.72;;;5.82;;
59189;SDS011;50749;51.636;4.948;2023-06-19T10:33:25;6.70;;;5.95;;
59189;SDS011;50749;51.636;4.948;2023-06-19T10:35:52;7.10;;;5.70;;
59189;SDS011;50749;51.636;4.948;2023-06-19T10:38:18;7.10;;;5.30;;
59189;SDS011;50749;51.636;4.948;2023-06-19T10:40:45;9.75;;;5.25;;
59189;SDS011;50749;51.636;4.948;2023-06-19T10:43:31;5.00;;;4.22;;
59189;SDS011;50749;51.636;4.948;2023-06-19T10:45:57;7.10;;;4.95;;
59189;SDS011;50749;51.636;4.948;2023-06-19T10:48:24;8.50;;;4.55;;
59189;SDS011;50749;51.636;4.948;2023-06-19T10:50:50;5.32;;;4.13;;
59189;SDS011;50749;51.636;4.948;2023-06-19T10:53:50;6.22;;;4.57;;
59189;SDS011;50749;51.636;4.948;2023-06-19T10:56:08;5.93;;;4.55;;
59189;SDS011;50749;51.636;4.948;2023-06-19T10:58:34;6.07;;;4.72;;
59189;SDS011;50749;51.636;4.948;2023-06-19T11:01:00;4.25;;;3.85;;
59189;SDS011;50749;51.636;4.948;2023-06-19T11:03:25;5.70;;;4.57;;
59189;SDS011;50749;51.636;4.948;2023-06-19T11:05:52;5.05;;;4.50;;
59189;SDS011;50749;51.636;4.948;2023-06-19T11:08:18;7.95;;;5.07;;
59189;SDS011;50749;51.636;4.948;2023-06-19T11:10:45;5.25;;;4.20;;
59189;SDS011;50749;51.636;4.948;2023-06-19T11:13:14;5.50;;;4.18;;
59189;SDS011;50749;51.636;4.948;2023-06-19T11:15:41;5.55;;;4.50;;
59189;SDS011;50749;51.636;4.948;2023-06-19T11:18:07;6.90;;;4.50;;
59189;SDS011;50749;51.636;4.948;2023-06-19T11:20:46;5.20;;;4.40;;
59189;SDS011;50749;51.636;4.948;2023-06-19T11:23:15;7.18;;;4.07;;
59189;SDS011;50749;51.636;4.948;2023-06-19T11:25:42;4.70;;;4.20;;
59189;SDS011;50749;51.636;4.948;2023-06-19T11:28:11;6.63;;;4.72;;
59189;SDS011;50749;51.636;4.948;2023-06-19T11:30:39;5.50;;;4.47;;
59189;SDS011;50749;51.636;4.948;2023-06-19T11:33:15;6.78;;;4.32;;
59189;SDS011;50749;51.636;4.948;2023-06-19T11:35:46;6.57;;;4.60;;
59189;SDS011;50749;51.636;4.948;2023-06-19T11:38:16;7.87;;;4.80;;
59189;SDS011;50749;51.636;4.948;2023-06-19T11:40:52;5.88;;;4.00;;
59189;SDS011;50749;51.636;4.948;2023-06-19T11:43:25;4.43;;;4.00;;
59189;SDS011;50749;51.636;4.948;2023-06-19T11:46:01;8.35;;;4.15;;
59189;SDS011;50749;51.636;4.948;2023-06-19T11:48:31;4.72;;;3.70;;
59189;SDS011;50749;51.636;4.948;2023-06-19T11:50:58;9.55;;;3.95;;
59189;SDS011;50749;51.636;4.948;2023-06-19T11:53:24;7.15;;;4.00;;
59189;SDS011;50749;51.636;4.948;2023-06-19T11:55:51;4.93;;;3.92;;
59189;SDS011;50749;51.636;4.948;2023-06-19T11:58:17;9.00;;;4.40;;
59189;SDS011;50749;51.636;4.948;2023-06-19T12:00:45;6.80;;;4.20;;
59189;SDS011;50749;51.636;4.948;2023-06-19T12:03:10;4.80;;;3.50;;
59189;SDS011;50749;51.636;4.948;2023-06-19T12:05:37;4.60;;;3.75;;
59189;SDS011;50749;51.636;4.948;2023-06-19T12:08:03;3.97;;;3.53;;
59189;SDS011;50749;51.636;4.948;2023-06-19T12:10:30;5.93;;;3.90;;
59189;SDS011;50749;51.636;4.948;2023-06-19T12:12:55;5.50;;;4.03;;
59189;SDS011;50749;51.636;4.948;2023-06-19T12:15:22;5.00;;;4.00;;
59189;SDS011;50749;51.636;4.948;2023-06-19T12:17:48;5.35;;;4.10;;
59189;SDS011;50749;51.636;4.948;2023-06-19T12:20:14;6.15;;;4.35;;
59189;SDS011;50749;51.636;4.948;2023-06-19T12:22:40;6.05;;;4.50;;
59189;SDS011;50749;51.636;4.948;2023-06-19T12:25:06;4.70;;;3.60;;
59189;SDS011;50749;51.636;4.948;2023-06-19T12:27:32;4.95;;;3.72;;
59189;SDS011;50749;51.636;4.948;2023-06-19T12:29:58;6.68;;;4.00;;
59189;SDS011;50749;51.636;4.948;2023-06-19T12:32:23;4.90;;;3.78;;
59189;SDS011;50749;51.636;4.948;2023-06-19T12:34:50;4.78;;;3.63;;
59189;SDS011;50749;51.636;4.948;2023-06-19T12:37:19;6.30;;;4.07;;
59189;SDS011;50749;51.636;4.948;2023-06-19T12:39:49;6.05;;;4.22;;
59189;SDS011;50749;51.636;4.948;2023-06-19T12:42:15;5.88;;;4.03;;
59189;SDS011;50749;51.636;4.948;2023-06-19T12:44:41;6.45;;;4.32;;
59189;SDS011;50749;51.636;4.948;2023-06-19T12:47:09;5.43;;;3.92;;
59189;SDS011;50749;51.636;4.948;2023-06-19T12:49:35;6.03;;;4.28;;
59189;SDS011;50749;51.636;4.948;2023-06-19T12:52:00;6.82;;;4.28;;
59189;SDS011;50749;51.636;4.948;2023-06-19T12:54:26;7.32;;;4.68;;
59189;SDS011;50749;51.636;4.948;2023-06-19T12:56:52;5.93;;;4.20;;
59189;SDS011;50749;51.636;4.948;2023-06-19T12:59:18;5.93;;;3.95;;
59189;SDS011;50749;51.636;4.948;2023-06-19T13:01:44;5.28;;;3.78;;
59189;SDS011;50749;51.636;4.948;2023-06-19T13:04:11;4.95;;;3.92;;
59189;SDS011;50749;51.636;4.948;2023-06-19T13:06:37;5.15;;;4.03;;
59189;SDS011;50749;51.636;4.948;2023-06-19T13:09:05;7.65;;;3.78;;
59189;SDS011;50749;51.636;4.948;2023-06-19T13:11:31;6.35;;;4.05;;
59189;SDS011;50749;51.636;4.948;2023-06-19T13:14:00;5.53;;;4.05;;
59189;SDS011;50749;51.636;4.948;2023-06-19T13:16:25;5.05;;;3.55;;
59189;SDS011;50749;51.636;4.948;2023-06-19T13:18:52;4.78;;;3.47;;
59189;SDS011;50749;51.636;4.948;2023-06-19T13:21:17;5.45;;;3.90;;
59189;SDS011;50749;51.636;4.948;2023-06-19T13:23:43;5.03;;;3.42;;
59189;SDS011;50749;51.636;4.948;2023-06-19T13:26:09;5.50;;;3.75;;
59189;SDS011;50749;51.636;4.948;2023-06-19T13:28:35;5.43;;;3.55;;
59189;SDS011;50749;51.636;4.948;2023-06-19T13:31:02;7.18;;;3.63;;
59189;SDS011;50749;51.636;4.948;2023-06-19T13:33:28;3.90;;;3.50;;
59189;SDS011;50749;51.636;4.948;2023-06-19T13:35:54;5.60;;;3.40;;
59189;SDS011;50749;51.636;4.948;2023-06-19T13:38:20;5.32;;;3.17;;
59189;SDS011;50749;51.636;4.948;2023-06-19T13:40:46;4.40;;;3.40;;
59189;SDS011;50749;51.636;4.948;2023-06-19T13:43:13;4.13;;;2.80;;
59189;SDS011;50749;51.636;4.948;2023-06-19T13:45:39;4.28;;;3.22;;
59189;SDS011;50749;51.636;4.948;2023-06-19T13:48:06;3.53;;;2.97;;
59189;SDS011;50749;51.636;4.948;2023-06-19T13:50:31;5.13;;;3.20;;
59189;SDS011;50749;51.636;4.948;2023-06-19T13:53:01;4.07;;;3.17;;
59189;SDS011;50749;51.636;4.948;2023-06-19T13:55:27;4.22;;;3.15;;
59189;SDS011;50749;51.636;4.948;2023-06-19T13:57:53;4.13;;;2.85;;
59189;SDS011;50749;51.636;4.948;2023-06-19T14:00:19;4.78;;;3.20;;
59189;SDS011;50749;51.636;4.948;2023-06-19T14:02:45;4.30;;;3.10;;
59189;SDS011;50749;51.636;4.948;2023-06-19T14:05:11;5.80;;;3.50;;
59189;SDS011;50749;51.636;4.948;2023-06-19T14:07:40;5.30;;;3.60;;
59189;SDS011;50749;51.636;4.948;2023-06-19T14:10:07;3.72;;;2.83;;
59189;SDS011;50749;51.636;4.948;2023-06-19T14:12:33;5.38;;;3.33;;
59189;SDS011;50749;51.636;4.948;2023-06-19T14:14:59;4.57;;;3.05;;
59189;SDS011;50749;51.636;4.948;2023-06-19T14:17:25;3.92;;;2.80;;
59189;SDS011;50749;51.636;4.948;2023-06-19T14:19:51;6.50;;;3.17;;
59189;SDS011;50749;51.636;4.948;2023-06-19T14:22:17;10.65;;;3.00;;
59189;SDS011;50749;51.636;4.948;2023-06-19T14:24:43;5.32;;;3.20;;
59189;SDS011;50749;51.636;4.948;2023-06-19T14:27:08;4.25;;;3.20;;
59189;SDS011;50749;51.636;4.948;2023-06-19T14:29:34;4.30;;;2.95;;
59189;SDS011;50749;51.636;4.948;2023-06-19T14:32:00;4.45;;;2.92;;
59189;SDS011;50749;51.636;4.948;2023-06-19T14:34:25;4.43;;;3.05;;
59189;SDS011;50749;51.636;4.948;2023-06-19T14:36:51;4.32;;;3.30;;
59189;SDS011;50749;51.636;4.948;2023-06-19T14:39:17;5.65;;;3.28;;
59189;SDS011;50749;51.636;4.948;2023-06-19T14:41:43;4.40;;;2.95;;
59189;SDS011;50749;51.636;4.948;2023-06-19T14:44:08;7.00;;;2.90;;
59189;SDS011;50749;51.636;4.948;2023-06-19T14:46:34;4.35;;;3.15;;
59189;SDS011;50749;51.636;4.948;2023-06-19T14:49:07;4.82;;;2.85;;
59189;SDS011;50749;51.636;4.948;2023-06-19T14:51:35;4.85;;;3.40;;
59189;SDS011;50749;51.636;4.948;2023-06-19T14:54:01;8.02;;;2.80;;